createdAt,value
2023-02-03T00:01:33.433Z,102666.84
2023-02-03T00:04:00.104Z,102666.84
2023-02-03T00:06:27.057Z,102673.75
2023-02-03T00:08:57.008Z,102680.09
2023-02-03T00:11:23.603Z,102680.09
2023-02-03T00:13:50.352Z,102681.97
2023-02-03T00:16:16.976Z,102683.56
2023-02-03T00:18:43.499Z,102674.81
2023-02-03T00:21:10.053Z,102679.84
2023-02-03T00:23:36.744Z,102687.00
2023-02-03T00:26:11.133Z,102680.69
2023-02-03T00:28:37.922Z,102686.22
2023-02-03T00:31:04.900Z,102689.66
2023-02-03T00:33:33.876Z,102699.25
2023-02-03T00:36:06.143Z,102686.56
2023-02-03T00:38:32.653Z,102696.59
2023-02-03T00:40:59.249Z,102701.66
2023-02-03T00:43:26.312Z,102687.59
2023-02-03T00:45:52.913Z,102702.47
2023-02-03T00:48:19.780Z,102691.88
2023-02-03T00:50:47.948Z,102685.53
2023-02-03T00:53:14.893Z,102700.41
2023-02-03T00:55:43.442Z,102700.41
2023-02-03T00:58:10.103Z,102681.03
2023-02-03T01:00:36.640Z,102685.53
2023-02-03T01:03:03.482Z,102676.56
2023-02-03T01:05:30.138Z,102680.00
2023-02-03T01:07:56.662Z,102676.56
2023-02-03T01:10:23.151Z,102672.03
2023-02-03T01:12:49.795Z,102664.88
2023-02-03T01:15:16.499Z,102666.75
2023-02-03T01:17:42.982Z,102675.50
2023-02-03T01:20:12.313Z,102680.00
2023-02-03T01:22:38.826Z,102677.34
2023-02-03T01:25:06.188Z,102680.81
2023-02-03T01:27:33.691Z,102680.00
2023-02-03T01:30:00.369Z,102661.44
2023-02-03T01:32:27.432Z,102655.34
2023-02-03T01:34:54.081Z,102630.63
2023-02-03T01:37:20.629Z,102635.94
2023-02-03T01:39:47.177Z,102641.25
2023-02-03T01:42:15.747Z,102628.81
2023-02-03T01:44:42.252Z,102630.41
2023-02-03T01:47:28.157Z,102631.47
2023-02-03T01:50:00.341Z,102626.38
2023-02-03T01:52:28.077Z,102650.84
2023-02-03T01:54:57.019Z,102645.75
2023-02-03T01:57:30.233Z,102638.00
2023-02-03T01:59:59.767Z,102617.63
2023-02-03T02:02:26.741Z,102605.16
2023-02-03T02:05:21.827Z,102610.25
2023-02-03T02:07:48.910Z,102602.03
2023-02-03T02:10:15.816Z,102595.94
2023-02-03T02:12:42.711Z,102604.94
2023-02-03T02:15:10.208Z,102602.88
2023-02-03T02:17:46.511Z,102614.28
2023-02-03T02:20:41.057Z,102621.19
2023-02-03T02:23:34.883Z,102620.16
2023-02-03T02:26:14.299Z,102623.84
2023-02-03T02:29:15.331Z,102633.44
2023-02-03T02:31:54.057Z,102627.31
2023-02-03T02:34:44.372Z,102627.06
2023-02-03T02:37:41.725Z,102614.88
2023-02-03T02:40:31.171Z,102618.31
2023-02-03T02:43:16.594Z,102619.94
2023-02-03T02:45:55.137Z,102626.28
2023-02-03T02:48:36.269Z,102613.00
2023-02-03T02:51:05.361Z,102614.06
2023-02-03T02:53:38.448Z,102604.03
2023-02-03T02:56:09.355Z,102596.06
2023-02-03T02:58:41.147Z,102590.78
2023-02-03T03:01:09.931Z,102600.56
2023-02-03T03:03:40.652Z,102586.25
2023-02-03T03:06:11.634Z,102576.69
2023-02-03T03:08:47.639Z,102569.31
2023-02-03T03:11:14.925Z,102578.09
2023-02-03T03:13:56.010Z,102584.19
2023-02-03T03:16:25.880Z,102591.94
2023-02-03T03:19:07.918Z,102588.22
2023-02-03T03:21:40.150Z,102595.16
2023-02-03T03:24:12.422Z,102577.38
2023-02-03T03:27:01.160Z,102587.78
2023-02-03T03:29:32.668Z,102577.16
2023-02-03T03:31:59.242Z,102575.31
2023-02-03T03:34:26.142Z,102591.81
2023-02-03T03:37:27.159Z,102588.09
2023-02-03T03:39:59.074Z,102605.06
2023-02-03T03:42:50.748Z,102598.97
2023-02-03T03:45:24.549Z,102605.06
2023-02-03T03:48:13.331Z,102598.72
2023-02-03T03:50:46.904Z,102610.16
2023-02-03T03:53:17.094Z,102610.72
2023-02-03T03:55:47.393Z,102616.84
2023-02-03T03:58:19.685Z,102626.66
2023-02-03T04:00:47.401Z,102624.78
2023-02-03T04:03:21.281Z,102623.75
2023-02-03T04:05:48.017Z,102616.63
2023-02-03T04:08:14.546Z,102606.81
2023-02-03T04:10:43.128Z,102607.59
2023-02-03T04:13:11.725Z,102611.06
2023-02-03T04:15:38.375Z,102610.03
2023-02-03T04:18:05.536Z,102606.31
2023-02-03T04:20:33.230Z,102615.13
2023-02-03T04:23:00.176Z,102615.91
2023-02-03T04:25:26.890Z,102613.00
2023-02-03T04:27:53.505Z,102619.94
2023-02-03T04:30:20.073Z,102598.25
2023-02-03T04:32:47.249Z,102603.09
2023-02-03T04:35:14.447Z,102599.41
2023-02-03T04:37:41.525Z,102593.28
2023-02-03T04:40:09.956Z,102596.50
2023-02-03T04:42:38.745Z,102604.03
2023-02-03T04:45:07.396Z,102596.88
2023-02-03T04:47:34.053Z,102610.50
2023-02-03T04:50:00.837Z,102612.31
2023-02-03T04:52:27.420Z,102606.78
2023-02-03T04:54:54.113Z,102603.09
2023-02-03T04:57:20.664Z,102602.28
2023-02-03T04:59:47.179Z,102595.94
2023-02-03T05:02:13.935Z,102594.88
2023-02-03T05:04:40.459Z,102587.97
2023-02-03T05:07:06.991Z,102588.56
2023-02-03T05:09:33.555Z,102595.47
2023-02-03T05:12:00.053Z,102589.34
2023-02-03T05:14:26.561Z,102595.22
2023-02-03T05:16:53.330Z,102592.56
2023-02-03T05:19:20.117Z,102608.06
2023-02-03T05:21:46.674Z,102613.09
2023-02-03T05:24:13.181Z,102611.50
2023-02-03T05:26:39.718Z,102603.53
2023-02-03T05:29:06.314Z,102577.81
2023-02-03T05:31:33.652Z,102596.38
2023-02-03T05:34:00.262Z,102600.41
2023-02-03T05:36:28.058Z,102607.56
2023-02-03T05:38:54.603Z,102598.81
2023-02-03T05:41:39.515Z,102589.78
2023-02-03T05:44:06.101Z,102598.81
2023-02-03T05:46:32.610Z,102601.47
2023-02-03T05:48:59.277Z,102605.16
2023-02-03T05:51:25.835Z,102604.34
2023-02-03T05:53:53.783Z,102623.72
2023-02-03T05:56:20.313Z,102614.75
2023-02-03T05:58:47.029Z,102593.72
2023-02-03T06:01:13.642Z,102591.88
2023-02-03T06:03:40.376Z,102591.88
2023-02-03T06:06:07.108Z,102595.59
2023-02-03T06:08:33.615Z,102595.59
2023-02-03T06:11:00.940Z,102599.25
2023-02-03T06:13:28.132Z,102601.91
2023-02-03T06:15:54.680Z,102602.97
2023-02-03T06:18:21.298Z,102606.44
2023-02-03T06:20:47.826Z,102592.13
2023-02-03T06:23:14.699Z,102602.97
2023-02-03T06:25:41.181Z,102605.63
2023-02-03T06:28:07.889Z,102604.81
2023-02-03T06:30:34.618Z,102614.38
2023-02-03T06:33:01.131Z,102617.03
2023-02-03T06:35:27.745Z,102610.94
2023-02-03T06:37:54.415Z,102605.63
2023-02-03T06:40:21.088Z,102608.50
2023-02-03T06:42:48.545Z,102610.34
2023-02-03T06:45:15.631Z,102606.91
2023-02-03T06:47:43.461Z,102598.13
2023-02-03T06:50:16.591Z,102614.03
2023-02-03T06:52:43.364Z,102624.91
2023-02-03T06:55:10.655Z,102624.91
2023-02-03T06:57:43.789Z,102629.38
2023-02-03T07:00:18.755Z,102638.19
2023-02-03T07:02:46.756Z,102640.84
2023-02-03T07:05:13.594Z,102647.97
2023-02-03T07:07:40.158Z,102647.16
2023-02-03T07:10:07.369Z,102654.09
2023-02-03T07:12:34.033Z,102655.94
2023-02-03T07:15:00.569Z,102654.91
2023-02-03T07:17:27.186Z,102659.41
2023-02-03T07:19:53.677Z,102661.00
2023-02-03T07:22:20.251Z,102662.88
2023-02-03T07:24:46.829Z,102662.88
2023-02-03T07:27:13.319Z,102667.38
2023-02-03T07:29:39.947Z,102660.22
2023-02-03T07:32:06.831Z,102671.84
2023-02-03T07:34:33.455Z,102670.81
2023-02-03T07:36:59.951Z,102679.94
2023-02-03T07:39:26.794Z,102677.38
2023-02-03T07:41:53.405Z,102668.50
2023-02-03T07:44:19.915Z,102657.53
2023-02-03T07:46:46.596Z,102660.06
2023-02-03T07:49:13.949Z,102663.41
2023-02-03T07:51:40.999Z,102657.16
2023-02-03T07:54:07.689Z,102667.66
2023-02-03T07:56:35.391Z,102676.28
2023-02-03T07:59:01.988Z,102692.34
2023-02-03T08:01:28.623Z,102677.06
2023-02-03T08:03:55.430Z,102684.34
2023-02-03T08:06:22.786Z,102679.34
2023-02-03T08:08:49.349Z,102680.25
2023-02-03T08:11:15.832Z,102687.50
2023-02-03T08:13:42.309Z,102694.19
2023-02-03T08:16:08.918Z,102695.59
2023-02-03T08:18:35.511Z,102695.91
2023-02-03T08:21:04.081Z,102707.69
2023-02-03T08:23:31.544Z,102704.56
2023-02-03T08:25:58.203Z,102703.50
2023-02-03T08:28:25.008Z,102702.63
2023-02-03T08:30:51.938Z,102706.59
2023-02-03T08:33:18.958Z,102716.66
2023-02-03T08:35:47.697Z,102723.94
2023-02-03T08:38:14.608Z,102727.97
2023-02-03T08:40:41.297Z,102708.09
2023-02-03T08:43:08.087Z,102713.75
2023-02-03T08:45:34.745Z,102726.91
2023-02-03T08:48:01.585Z,102722.66
2023-02-03T08:50:28.659Z,102732.72
2023-02-03T08:52:58.154Z,102726.34
2023-02-03T08:55:25.160Z,102727.56
2023-02-03T08:57:51.797Z,102735.00
2023-02-03T09:00:18.983Z,102734.66
2023-02-03T09:02:45.748Z,102739.59
2023-02-03T09:05:12.719Z,102734.91
2023-02-03T09:07:39.836Z,102736.53
2023-02-03T09:10:06.831Z,102731.78
2023-02-03T09:12:33.303Z,102739.78
2023-02-03T09:14:59.954Z,102747.19
2023-02-03T09:17:26.635Z,102743.47
2023-02-03T09:19:53.406Z,102742.88
2023-02-03T09:22:19.951Z,102739.78
2023-02-03T09:24:46.704Z,102747.44
2023-02-03T09:27:13.390Z,102750.31
2023-02-03T09:29:40.028Z,102737.75
2023-02-03T09:32:09.156Z,102736.78
2023-02-03T09:34:41.265Z,102749.69
2023-02-03T09:37:08.566Z,102751.97
2023-02-03T09:39:35.258Z,102752.19
2023-02-03T09:42:25.370Z,102755.19
2023-02-03T09:45:04.265Z,102766.41
2023-02-03T09:47:39.509Z,102765.91
2023-02-03T09:50:12.728Z,102763.50
2023-02-03T09:52:41.520Z,102759.06
2023-02-03T09:55:39.619Z,102767.84
2023-02-03T09:58:23.246Z,102770.75
2023-02-03T10:00:59.011Z,102774.72
2023-02-03T10:03:37.043Z,102774.44
2023-02-03T10:06:29.037Z,102778.81
2023-02-03T10:09:04.984Z,102784.47
2023-02-03T10:12:10.082Z,102786.47
2023-02-03T10:15:20.675Z,102787.78
2023-02-03T10:17:54.657Z,102782.94
2023-02-03T10:20:30.852Z,102786.16
2023-02-03T10:23:04.855Z,102793.25
2023-02-03T10:25:49.682Z,102797.78
2023-02-03T10:28:24.531Z,102787.63
2023-02-03T10:31:01.238Z,102803.59
2023-02-03T10:33:30.663Z,102796.88
2023-02-03T10:36:21.489Z,102809.16
2023-02-03T10:39:07.491Z,102804.97
2023-02-03T10:41:34.507Z,102808.44
2023-02-03T10:44:05.832Z,102810.88
2023-02-03T10:46:36.082Z,102818.28
2023-02-03T10:49:02.849Z,102815.06
2023-02-03T10:51:38.781Z,102820.72
2023-02-03T10:54:25.393Z,102815.69
2023-02-03T10:56:52.178Z,102819.66
2023-02-03T10:59:31.322Z,102812.06
2023-02-03T11:01:58.202Z,102800.06
2023-02-03T11:04:31.978Z,102811.19
2023-02-03T11:07:06.353Z,102807.53
2023-02-03T11:09:42.833Z,102820.72
2023-02-03T11:12:15.832Z,102817.72
2023-02-03T11:14:47.033Z,102827.25
2023-02-03T11:17:26.987Z,102833.38
2023-02-03T11:19:56.771Z,102832.41
2023-02-03T11:22:31.460Z,102834.03
2023-02-03T11:24:59.791Z,102833.72
2023-02-03T11:27:30.277Z,102825.94
2023-02-03T11:30:20.196Z,102823.50
2023-02-03T11:32:48.647Z,102813.03
2023-02-03T11:35:22.901Z,102825.06
2023-02-03T11:37:54.566Z,102827.25
2023-02-03T11:40:21.084Z,102828.94
2023-02-03T11:43:15.881Z,102839.25
2023-02-03T11:45:46.794Z,102833.94
2023-02-03T11:48:36.000Z,102836.94
2023-02-03T11:51:25.345Z,102826.53
2023-02-03T11:54:36.143Z,102827.47
2023-02-03T11:57:34.997Z,102812.97
2023-02-03T12:00:17.089Z,102809.34
2023-02-03T12:03:29.712Z,102818.28
2023-02-03T12:06:09.317Z,102811.44
2023-02-03T12:09:08.040Z,102818.53
2023-02-03T12:11:49.674Z,102830.53
2023-02-03T12:14:39.112Z,102825.38
2023-02-03T12:17:17.353Z,102842.88
2023-02-03T12:20:05.398Z,102844.75
2023-02-03T12:22:51.125Z,102842.16
2023-02-03T12:25:40.290Z,102838.91
2023-02-03T12:28:38.635Z,102834.72
2023-02-03T12:31:16.071Z,102847.41
2023-02-03T12:33:50.735Z,102866.47
2023-02-03T12:36:26.615Z,102873.94
2023-02-03T12:38:59.453Z,102877.44
2023-02-03T12:41:38.434Z,102879.16
2023-02-03T12:44:15.131Z,102879.78
2023-02-03T12:46:48.273Z,102887.97
2023-02-03T12:49:38.942Z,102891.66
2023-02-03T12:52:17.672Z,102888.69
2023-02-03T12:55:03.011Z,102894.69
2023-02-03T12:57:55.073Z,102903.50
2023-02-03T13:00:37.132Z,102908.94
2023-02-03T13:03:29.884Z,102915.63
2023-02-03T13:06:12.284Z,102908.34
2023-02-03T13:08:44.140Z,102918.53
2023-02-03T13:11:37.097Z,102915.28
2023-02-03T13:14:28.119Z,102904.31
2023-02-03T13:17:05.890Z,102912.22
2023-02-03T13:19:42.863Z,102915.16
2023-02-03T13:22:14.917Z,102916.44
2023-02-03T13:24:49.231Z,102914.72
2023-02-03T13:27:24.741Z,102910.72
2023-02-03T13:30:15.331Z,102914.78
2023-02-03T13:33:13.817Z,102927.03
2023-02-03T13:35:55.136Z,102925.88
2023-02-03T13:38:31.200Z,102925.38
2023-02-03T13:41:20.806Z,102919.84
2023-02-03T13:43:51.671Z,102919.53
2023-02-03T13:46:32.464Z,102916.16
2023-02-03T13:49:01.734Z,102909.69
2023-02-03T13:51:34.923Z,102917.88
2023-02-03T13:54:07.258Z,102916.78
2023-02-03T13:56:34.968Z,102913.91
2023-02-03T13:59:13.586Z,102918.31
2023-02-03T14:01:41.605Z,102909.69
2023-02-03T14:04:29.449Z,102911.69
2023-02-03T14:06:58.861Z,102910.69
2023-02-03T14:09:31.237Z,102911.13
2023-02-03T14:12:29.919Z,102925.16
2023-02-03T14:15:05.144Z,102929.38
2023-02-03T14:17:34.416Z,102933.47
2023-02-03T14:20:05.633Z,102935.00
2023-02-03T14:22:32.661Z,102943.91
2023-02-03T14:25:06.659Z,102948.16
2023-02-03T14:27:33.477Z,102946.31
2023-02-03T14:30:08.053Z,102954.63
2023-02-03T14:32:58.090Z,102967.38
2023-02-03T14:35:35.080Z,102966.59
2023-02-03T14:38:08.515Z,102973.69
2023-02-03T14:40:56.079Z,102976.91
2023-02-03T14:43:38.127Z,102970.53
2023-02-03T14:46:39.423Z,102970.41
2023-02-03T14:49:09.182Z,102980.25
2023-02-03T14:51:57.344Z,102977.34
2023-02-03T14:54:54.215Z,102984.53
2023-02-03T14:57:26.775Z,102986.28
2023-02-03T14:59:58.098Z,102975.28
2023-02-03T15:02:28.660Z,102981.66
2023-02-03T15:05:15.000Z,102984.41
2023-02-03T15:07:49.659Z,102978.06
2023-02-03T15:10:17.925Z,102980.72
2023-02-03T15:12:50.310Z,102979.56
2023-02-03T15:15:29.110Z,102965.22
2023-02-03T15:17:59.564Z,102965.22
2023-02-03T15:20:41.501Z,102970.44
2023-02-03T15:23:25.076Z,102973.19
2023-02-03T15:26:02.300Z,102965.78
2023-02-03T15:28:37.973Z,102982.94
2023-02-03T15:31:27.959Z,102982.25
2023-02-03T15:33:58.956Z,102988.13
2023-02-03T15:36:40.260Z,102982.31
2023-02-03T15:39:26.083Z,102983.25
2023-02-03T15:41:59.919Z,102982.47
2023-02-03T15:44:35.881Z,102980.94
2023-02-03T15:47:23.735Z,102986.50
2023-02-03T15:50:00.526Z,102994.25
2023-02-03T15:52:39.729Z,103007.78
2023-02-03T15:55:24.717Z,102999.81
2023-02-03T15:57:51.979Z,103008.00
2023-02-03T16:00:32.990Z,103004.44
2023-02-03T16:03:03.039Z,103014.28
2023-02-03T16:05:41.998Z,103022.50
2023-02-03T16:08:43.425Z,103026.88
2023-02-03T16:11:22.352Z,103024.56
2023-02-03T16:13:49.052Z,103021.56
2023-02-03T16:16:35.717Z,103023.38
2023-02-03T16:19:31.534Z,103019.59
2023-02-03T16:25:34.454Z,103038.38
2023-02-03T16:28:27.122Z,103044.28
2023-02-03T16:31:30.326Z,103046.03
2023-02-03T16:34:17.377Z,103048.09
2023-02-03T16:37:03.465Z,103065.78
2023-02-03T16:39:49.298Z,103072.25
2023-02-03T16:42:37.171Z,103075.59
2023-02-03T16:45:36.931Z,103078.97
2023-02-03T16:48:23.278Z,103084.50
2023-02-03T16:50:54.292Z,103085.06
2023-02-03T16:53:26.312Z,103087.16
2023-02-03T16:55:56.425Z,103088.53
2023-02-03T16:58:23.488Z,103091.31
2023-02-03T17:00:55.229Z,103091.63
2023-02-03T17:03:24.585Z,103091.72
2023-02-03T17:05:53.976Z,103095.09
2023-02-03T17:08:26.691Z,103101.56
2023-02-03T17:10:55.658Z,103112.50
2023-02-03T17:13:24.642Z,103116.44
2023-02-03T17:15:58.527Z,103113.28
2023-02-03T17:18:25.319Z,103117.84
2023-02-03T17:20:58.958Z,103121.28
2023-02-03T17:23:26.570Z,103131.69
2023-02-03T17:26:01.039Z,103135.84
2023-02-03T17:28:28.257Z,103138.16
2023-02-03T17:31:00.604Z,103141.63
2023-02-03T17:33:33.333Z,103143.00
2023-02-03T17:36:03.204Z,103143.31
2023-02-03T17:38:30.684Z,103147.84
2023-02-03T17:54:48.693Z,103164.78
2023-02-03T17:57:15.568Z,103174.34
2023-02-03T17:59:42.421Z,103179.50
2023-02-03T18:02:13.126Z,103175.44
2023-02-03T18:04:40.044Z,103175.97
2023-02-03T18:07:09.802Z,103197.44
2023-02-03T18:09:36.588Z,103188.66
2023-02-03T18:12:03.459Z,103191.75
2023-02-03T18:14:30.351Z,103192.84
2023-02-03T18:16:56.956Z,103193.22
2023-02-03T18:19:23.557Z,103197.06
2023-02-03T18:21:51.361Z,103200.19
2023-02-03T18:24:19.819Z,103207.56
2023-02-03T18:26:50.778Z,103208.94
2023-02-03T18:29:18.533Z,103216.13
2023-02-03T18:31:46.079Z,103216.31
2023-02-03T18:34:13.268Z,103232.56
2023-02-03T18:39:08.621Z,103238.25
2023-02-03T18:41:38.770Z,103243.91
2023-02-03T18:44:05.648Z,103245.63
2023-02-03T18:46:33.627Z,103245.34
2023-02-03T18:49:00.320Z,103247.53
2023-02-03T18:51:27.581Z,103249.97
2023-02-03T18:53:58.812Z,103253.44
2023-02-03T18:56:28.299Z,103256.91
2023-02-03T18:58:55.224Z,103251.97
2023-02-03T19:01:25.081Z,103245.03
2023-02-03T19:03:52.225Z,103249.31
2023-02-03T19:06:18.874Z,103262.97
2023-02-03T19:08:46.871Z,103265.41
2023-02-03T19:11:14.862Z,103262.97
2023-02-03T19:13:42.380Z,103265.41
2023-02-03T19:16:11.762Z,103260.53
2023-02-03T19:18:38.434Z,103268.50
2023-02-03T19:21:05.211Z,103268.50
2023-02-03T19:23:32.205Z,103262.38
2023-02-03T19:25:58.840Z,103268.13
2023-02-03T19:28:30.959Z,103256.84
2023-02-03T19:31:08.373Z,103263.41
2023-02-03T19:33:36.343Z,103252.44
2023-02-03T19:36:04.127Z,103266.94
2023-02-03T19:38:30.930Z,103272.84
2023-02-03T19:40:57.532Z,103278.03
2023-02-03T19:43:24.813Z,103284.91
2023-02-03T19:45:51.822Z,103289.25
2023-02-03T19:48:18.937Z,103292.09
2023-02-03T19:50:48.118Z,103294.16
2023-02-03T19:53:15.921Z,103300.47
2023-02-03T19:55:43.594Z,103298.81
2023-02-03T20:00:37.252Z,103312.34
2023-02-03T20:03:03.929Z,103309.81
2023-02-03T20:05:30.627Z,103319.66
2023-02-03T20:07:57.173Z,103321.25
2023-02-03T20:10:26.426Z,103325.78
2023-02-03T20:12:54.444Z,103324.16
2023-02-03T20:15:21.800Z,103330.28
2023-02-03T20:17:48.761Z,103330.28
2023-02-03T20:20:18.128Z,103338.25
2023-02-03T20:22:46.031Z,103330.06
2023-02-03T20:25:12.719Z,103334.78
2023-02-03T20:27:39.554Z,103334.13
2023-02-03T20:30:06.528Z,103328.81
2023-02-03T20:32:33.289Z,103325.16
2023-02-03T20:34:59.994Z,103325.16
2023-02-03T20:37:26.586Z,103328.88
2023-02-03T20:39:53.343Z,103325.03
2023-02-03T20:42:20.055Z,103329.38
2023-02-03T20:44:46.865Z,103340.19
2023-02-03T20:47:18.050Z,103339.53
2023-02-03T20:49:45.824Z,103333.63
2023-02-03T20:52:20.895Z,103336.72
2023-02-03T20:54:48.211Z,103333.41
2023-02-03T20:57:17.462Z,103343.09
2023-02-03T20:59:47.162Z,103351.00
2023-02-03T21:02:19.650Z,103335.66
2023-02-03T21:04:58.225Z,103345.91
2023-02-03T21:07:30.990Z,103349.22
2023-02-03T21:10:03.387Z,103346.63
2023-02-03T21:12:30.074Z,103352.34
2023-02-03T21:14:57.225Z,103356.53
2023-02-03T21:17:26.479Z,103350.44
2023-02-03T21:19:54.584Z,103355.16
2023-02-03T21:22:25.516Z,103363.00
2023-02-03T21:24:57.612Z,103359.56
2023-02-03T21:27:24.429Z,103363.03
2023-02-03T21:29:52.005Z,103362.25
2023-02-03T21:32:18.775Z,103352.88
2023-02-03T21:34:47.799Z,103368.41
2023-02-03T21:37:20.014Z,103371.50
2023-02-03T21:39:48.009Z,103372.75
2023-02-03T21:42:41.423Z,103374.59
2023-02-03T21:45:39.036Z,103376.44
2023-02-03T21:48:29.272Z,103383.00
2023-02-03T21:50:59.742Z,103382.81
2023-02-03T21:53:32.921Z,103378.53
2023-02-03T21:56:16.134Z,103383.44
2023-02-03T21:58:44.116Z,103380.59
2023-02-03T22:01:17.030Z,103390.41
2023-02-03T22:03:48.703Z,103388.19
2023-02-03T22:06:18.642Z,103395.09
2023-02-03T22:08:48.066Z,103399.78
2023-02-03T22:11:15.901Z,103397.56
2023-02-03T22:13:43.110Z,103406.34
2023-02-03T22:16:10.286Z,103413.69
2023-02-03T22:18:36.912Z,103412.88
2023-02-03T22:21:03.933Z,103413.06
2023-02-03T22:23:30.587Z,103415.94
2023-02-03T22:25:57.249Z,103419.81
2023-02-03T22:28:23.859Z,103416.34
2023-02-03T22:30:50.614Z,103422.88
2023-02-03T22:33:17.516Z,103424.09
2023-02-03T22:35:44.344Z,103425.31
2023-02-03T22:38:12.409Z,103436.13
2023-02-03T22:40:39.076Z,103441.84
2023-02-03T22:43:05.556Z,103444.91
2023-02-03T22:45:32.302Z,103439.00
2023-02-03T22:48:00.543Z,103445.31
2023-02-03T22:50:35.371Z,103451.63
2023-02-03T22:53:07.287Z,103461.84
2023-02-03T22:55:33.831Z,103459.41
2023-02-03T22:58:00.697Z,103469.19
2023-02-03T23:00:27.294Z,103473.09
2023-02-03T23:02:54.736Z,103474.09
2023-02-03T23:05:21.932Z,103466.34
2023-02-03T23:07:49.236Z,103464.72
2023-02-03T23:10:22.728Z,103465.72
2023-02-03T23:12:49.916Z,103462.25
2023-02-03T23:15:18.357Z,103458.81
2023-02-03T23:17:45.412Z,103455.34
2023-02-03T23:20:13.999Z,103459.00
2023-02-03T23:22:40.570Z,103463.69
2023-02-03T23:25:07.945Z,103465.53
2023-02-03T23:27:34.627Z,103463.88
2023-02-03T23:30:01.175Z,103467.56
2023-02-03T23:32:27.744Z,103467.78
2023-02-03T23:35:12.797Z,103468.81
2023-02-03T23:37:39.578Z,103469.00
2023-02-03T23:40:07.255Z,103475.31
2023-02-03T23:42:33.922Z,103473.50
2023-02-03T23:45:00.564Z,103482.44
2023-02-03T23:47:27.316Z,103487.75
2023-02-03T23:49:53.901Z,103484.28
2023-02-03T23:52:20.448Z,103493.25
2023-02-03T23:54:47.170Z,103484.47
2023-02-03T23:57:13.685Z,103491.63
2023-02-03T23:59:40.255Z,103496.13
